sensor_id;sensor_type;location;lat;lon;timestamp;P1;durP1;ratioP1;P2;durP2;ratioP2
54937;SDS011;52756;52.826;6.214;2023-06-14T00:00:42;6.05;;;2.20;;
54937;SDS011;52756;52.826;6.214;2023-06-14T00:03:09;3.17;;;1.83;;
54937;SDS011;52756;52.826;6.214;2023-06-14T00:05:37;6.15;;;2.33;;
54937;SDS011;52756;52.826;6.214;2023-06-14T00:08:10;4.03;;;1.92;;
54937;SDS011;52756;52.826;6.214;2023-06-14T00:10:36;5.75;;;2.10;;
54937;SDS011;52756;52.826;6.214;2023-06-14T00:13:03;6.00;;;1.98;;
54937;SDS011;52756;52.826;6.214;2023-06-14T00:15:30;5.18;;;2.13;;
54937;SDS011;52756;52.826;6.214;2023-06-14T00:17:59;6.85;;;2.47;;
54937;SDS011;52756;52.826;6.214;2023-06-14T00:20:28;4.80;;;2.03;;
54937;SDS011;52756;52.826;6.214;2023-06-14T00:22:58;5.50;;;2.30;;
54937;SDS011;52756;52.826;6.214;2023-06-14T00:25:25;5.28;;;2.03;;
54937;SDS011;52756;52.826;6.214;2023-06-14T00:27:51;6.00;;;2.10;;
54937;SDS011;52756;52.826;6.214;2023-06-14T00:30:18;5.63;;;1.98;;
54937;SDS011;52756;52.826;6.214;2023-06-14T00:32:44;4.03;;;1.70;;
54937;SDS011;52756;52.826;6.214;2023-06-14T00:35:10;5.88;;;1.88;;
54937;SDS011;52756;52.826;6.214;2023-06-14T00:37:37;3.15;;;1.88;;
54937;SDS011;52756;52.826;6.214;2023-06-14T00:40:03;7.22;;;2.00;;
54937;SDS011;52756;52.826;6.214;2023-06-14T00:42:30;6.78;;;2.00;;
54937;SDS011;52756;52.826;6.214;2023-06-14T00:44:56;7.53;;;2.00;;
54937;SDS011;52756;52.826;6.214;2023-06-14T00:47:22;4.50;;;1.70;;
54937;SDS011;52756;52.826;6.214;2023-06-14T00:49:48;5.40;;;1.73;;
54937;SDS011;52756;52.826;6.214;2023-06-14T00:52:16;5.70;;;2.35;;
54937;SDS011;52756;52.826;6.214;2023-06-14T00:54:42;4.72;;;1.88;;
54937;SDS011;52756;52.826;6.214;2023-06-14T00:57:12;4.45;;;1.88;;
54937;SDS011;52756;52.826;6.214;2023-06-14T00:59:41;4.20;;;1.80;;
54937;SDS011;52756;52.826;6.214;2023-06-14T01:02:07;4.93;;;2.35;;
54937;SDS011;52756;52.826;6.214;2023-06-14T01:04:33;5.85;;;2.30;;
54937;SDS011;52756;52.826;6.214;2023-06-14T01:09:42;3.75;;;1.65;;
54937;SDS011;52756;52.826;6.214;2023-06-14T01:15:46;3.05;;;1.90;;
54937;SDS011;52756;52.826;6.214;2023-06-14T01:18:14;3.88;;;2.22;;
54937;SDS011;52756;52.826;6.214;2023-06-14T01:20:43;4.28;;;1.92;;
54937;SDS011;52756;52.826;6.214;2023-06-14T01:23:14;4.38;;;1.85;;
54937;SDS011;52756;52.826;6.214;2023-06-14T01:25:41;4.13;;;2.25;;
54937;SDS011;52756;52.826;6.214;2023-06-14T01:28:09;5.70;;;2.03;;
54937;SDS011;52756;52.826;6.214;2023-06-14T01:30:40;4.50;;;2.28;;
54937;SDS011;52756;52.826;6.214;2023-06-14T01:33:10;2.13;;;1.45;;
54937;SDS011;52756;52.826;6.214;2023-06-14T01:35:38;4.38;;;2.13;;
54937;SDS011;52756;52.826;6.214;2023-06-14T01:38:04;4.85;;;2.00;;
54937;SDS011;52756;52.826;6.214;2023-06-14T01:40:31;4.15;;;1.70;;
54937;SDS011;52756;52.826;6.214;2023-06-14T01:42:59;4.78;;;1.98;;
54937;SDS011;52756;52.826;6.214;2023-06-14T01:45:27;4.55;;;1.90;;
54937;SDS011;52756;52.826;6.214;2023-06-14T01:47:54;6.32;;;1.75;;
54937;SDS011;52756;52.826;6.214;2023-06-14T01:50:20;6.22;;;2.20;;
54937;SDS011;52756;52.826;6.214;2023-06-14T01:52:46;5.63;;;1.85;;
54937;SDS011;52756;52.826;6.214;2023-06-14T01:55:12;4.25;;;1.77;;
54937;SDS011;52756;52.826;6.214;2023-06-14T01:57:38;4.28;;;1.85;;
54937;SDS011;52756;52.826;6.214;2023-06-14T02:00:04;5.57;;;1.75;;
54937;SDS011;52756;52.826;6.214;2023-06-14T02:02:35;4.60;;;2.22;;
54937;SDS011;52756;52.826;6.214;2023-06-14T02:05:01;3.42;;;1.75;;
54937;SDS011;52756;52.826;6.214;2023-06-14T02:07:27;4.53;;;1.73;;
54937;SDS011;52756;52.826;6.214;2023-06-14T02:09:53;2.95;;;1.70;;
54937;SDS011;52756;52.826;6.214;2023-06-14T02:12:18;3.72;;;1.50;;
54937;SDS011;52756;52.826;6.214;2023-06-14T02:14:44;2.30;;;1.60;;
54937;SDS011;52756;52.826;6.214;2023-06-14T02:17:10;5.90;;;2.05;;
54937;SDS011;52756;52.826;6.214;2023-06-14T02:19:35;4.22;;;1.80;;
54937;SDS011;52756;52.826;6.214;2023-06-14T02:22:01;3.03;;;1.83;;
54937;SDS011;52756;52.826;6.214;2023-06-14T02:24:27;4.20;;;1.70;;
54937;SDS011;52756;52.826;6.214;2023-06-14T02:26:52;4.47;;;1.77;;
54937;SDS011;52756;52.826;6.214;2023-06-14T02:29:18;4.45;;;1.70;;
54937;SDS011;52756;52.826;6.214;2023-06-14T02:31:44;4.70;;;1.73;;
54937;SDS011;52756;52.826;6.214;2023-06-14T02:34:12;3.20;;;1.60;;
54937;SDS011;52756;52.826;6.214;2023-06-14T02:36:37;3.17;;;1.48;;
54937;SDS011;52756;52.826;6.214;2023-06-14T02:39:07;3.47;;;1.90;;
54937;SDS011;52756;52.826;6.214;2023-06-14T02:41:34;3.20;;;1.70;;
54937;SDS011;52756;52.826;6.214;2023-06-14T02:44:00;3.80;;;1.67;;
54937;SDS011;52756;52.826;6.214;2023-06-14T02:46:25;2.60;;;1.30;;
54937;SDS011;52756;52.826;6.214;2023-06-14T02:48:51;4.57;;;1.92;;
54937;SDS011;52756;52.826;6.214;2023-06-14T02:51:17;3.58;;;1.73;;
54937;SDS011;52756;52.826;6.214;2023-06-14T02:53:42;4.00;;;1.90;;
54937;SDS011;52756;52.826;6.214;2023-06-14T02:56:09;3.30;;;1.55;;
54937;SDS011;52756;52.826;6.214;2023-06-14T02:58:37;3.25;;;1.88;;
54937;SDS011;52756;52.826;6.214;2023-06-14T03:01:07;5.43;;;1.80;;
54937;SDS011;52756;52.826;6.214;2023-06-14T03:03:33;4.60;;;1.50;;
54937;SDS011;52756;52.826;6.214;2023-06-14T03:05:59;2.75;;;1.90;;
54937;SDS011;52756;52.826;6.214;2023-06-14T03:08:30;3.78;;;1.90;;
54937;SDS011;52756;52.826;6.214;2023-06-14T03:10:56;4.65;;;2.03;;
54937;SDS011;52756;52.826;6.214;2023-06-14T03:13:22;3.72;;;2.00;;
54937;SDS011;52756;52.826;6.214;2023-06-14T03:15:48;2.97;;;1.60;;
54937;SDS011;52756;52.826;6.214;2023-06-14T03:18:15;3.42;;;1.65;;
54937;SDS011;52756;52.826;6.214;2023-06-14T03:20:42;5.03;;;1.80;;
54937;SDS011;52756;52.826;6.214;2023-06-14T03:23:08;4.53;;;1.65;;
54937;SDS011;52756;52.826;6.214;2023-06-14T03:25:34;6.93;;;1.60;;
54937;SDS011;52756;52.826;6.214;2023-06-14T03:28:06;4.80;;;1.70;;
54937;SDS011;52756;52.826;6.214;2023-06-14T03:30:32;2.88;;;1.52;;
54937;SDS011;52756;52.826;6.214;2023-06-14T03:32:58;4.35;;;2.00;;
54937;SDS011;52756;52.826;6.214;2023-06-14T03:35:26;3.60;;;1.42;;
54937;SDS011;52756;52.826;6.214;2023-06-14T03:37:52;8.30;;;1.80;;
54937;SDS011;52756;52.826;6.214;2023-06-14T03:40:18;4.00;;;1.85;;
54937;SDS011;52756;52.826;6.214;2023-06-14T03:42:47;4.53;;;2.00;;
54937;SDS011;52756;52.826;6.214;2023-06-14T03:45:13;3.50;;;1.67;;
54937;SDS011;52756;52.826;6.214;2023-06-14T03:47:38;5.03;;;2.00;;
54937;SDS011;52756;52.826;6.214;2023-06-14T03:50:05;2.90;;;2.13;;
54937;SDS011;52756;52.826;6.214;2023-06-14T03:52:31;4.95;;;1.80;;
54937;SDS011;52756;52.826;6.214;2023-06-14T03:54:57;4.30;;;2.03;;
54937;SDS011;52756;52.826;6.214;2023-06-14T03:57:25;5.57;;;2.20;;
54937;SDS011;52756;52.826;6.214;2023-06-14T03:59:51;4.95;;;2.05;;
54937;SDS011;52756;52.826;6.214;2023-06-14T04:02:17;6.20;;;1.80;;
54937;SDS011;52756;52.826;6.214;2023-06-14T04:04:43;4.22;;;2.00;;
54937;SDS011;52756;52.826;6.214;2023-06-14T04:07:13;4.75;;;1.85;;
54937;SDS011;52756;52.826;6.214;2023-06-14T04:09:40;3.88;;;1.92;;
54937;SDS011;52756;52.826;6.214;2023-06-14T04:12:06;3.00;;;2.22;;
54937;SDS011;52756;52.826;6.214;2023-06-14T04:14:34;5.75;;;2.40;;
54937;SDS011;52756;52.826;6.214;2023-06-14T04:17:00;3.67;;;1.88;;
54937;SDS011;52756;52.826;6.214;2023-06-14T04:19:26;5.47;;;1.80;;
54937;SDS011;52756;52.826;6.214;2023-06-14T04:21:52;3.90;;;1.90;;
54937;SDS011;52756;52.826;6.214;2023-06-14T04:24:17;2.88;;;1.90;;
54937;SDS011;52756;52.826;6.214;2023-06-14T04:26:44;7.00;;;2.35;;
54937;SDS011;52756;52.826;6.214;2023-06-14T04:29:12;3.75;;;2.10;;
54937;SDS011;52756;52.826;6.214;2023-06-14T04:31:41;3.88;;;1.98;;
54937;SDS011;52756;52.826;6.214;2023-06-14T04:34:11;3.45;;;2.20;;
54937;SDS011;52756;52.826;6.214;2023-06-14T04:36:43;4.03;;;2.28;;
54937;SDS011;52756;52.826;6.214;2023-06-14T04:39:17;4.68;;;2.30;;
54937;SDS011;52756;52.826;6.214;2023-06-14T04:41:43;5.75;;;2.42;;
54937;SDS011;52756;52.826;6.214;2023-06-14T04:44:09;6.78;;;2.67;;
54937;SDS011;52756;52.826;6.214;2023-06-14T04:46:35;4.07;;;2.13;;
54937;SDS011;52756;52.826;6.214;2023-06-14T04:49:10;3.28;;;1.98;;
54937;SDS011;52756;52.826;6.214;2023-06-14T04:51:43;3.08;;;1.90;;
54937;SDS011;52756;52.826;6.214;2023-06-14T04:54:12;4.57;;;2.47;;
54937;SDS011;52756;52.826;6.214;2023-06-14T04:56:43;5.80;;;2.22;;
54937;SDS011;52756;52.826;6.214;2023-06-14T04:59:10;5.50;;;2.47;;
54937;SDS011;52756;52.826;6.214;2023-06-14T05:01:40;5.82;;;2.53;;
54937;SDS011;52756;52.826;6.214;2023-06-14T05:04:05;5.85;;;2.53;;
54937;SDS011;52756;52.826;6.214;2023-06-14T05:06:31;5.15;;;2.72;;
54937;SDS011;52756;52.826;6.214;2023-06-14T05:08:57;5.10;;;2.85;;
54937;SDS011;52756;52.826;6.214;2023-06-14T05:11:23;6.70;;;2.80;;
54937;SDS011;52756;52.826;6.214;2023-06-14T05:13:49;7.32;;;2.90;;
54937;SDS011;52756;52.826;6.214;2023-06-14T05:16:16;5.00;;;2.72;;
54937;SDS011;52756;52.826;6.214;2023-06-14T05:18:44;6.63;;;2.75;;
54937;SDS011;52756;52.826;6.214;2023-06-14T05:21:12;6.32;;;3.22;;
54937;SDS011;52756;52.826;6.214;2023-06-14T05:23:38;6.57;;;3.15;;
54937;SDS011;52756;52.826;6.214;2023-06-14T05:26:03;4.78;;;3.05;;
54937;SDS011;52756;52.826;6.214;2023-06-14T05:28:30;4.93;;;2.40;;
54937;SDS011;52756;52.826;6.214;2023-06-14T05:30:56;5.03;;;2.47;;
54937;SDS011;52756;52.826;6.214;2023-06-14T05:33:23;4.72;;;2.90;;
54937;SDS011;52756;52.826;6.214;2023-06-14T05:35:48;3.75;;;2.60;;
54937;SDS011;52756;52.826;6.214;2023-06-14T05:38:14;5.28;;;2.58;;
54937;SDS011;52756;52.826;6.214;2023-06-14T05:40:40;5.10;;;3.03;;
54937;SDS011;52756;52.826;6.214;2023-06-14T05:43:05;9.27;;;2.80;;
54937;SDS011;52756;52.826;6.214;2023-06-14T05:45:31;4.50;;;2.42;;
54937;SDS011;52756;52.826;6.214;2023-06-14T05:47:57;5.07;;;2.83;;
54937;SDS011;52756;52.826;6.214;2023-06-14T05:50:22;4.88;;;2.60;;
54937;SDS011;52756;52.826;6.214;2023-06-14T05:52:48;7.00;;;3.22;;
54937;SDS011;52756;52.826;6.214;2023-06-14T05:55:15;5.07;;;3.10;;
54937;SDS011;52756;52.826;6.214;2023-06-14T05:57:41;4.68;;;2.63;;
54937;SDS011;52756;52.826;6.214;2023-06-14T06:00:07;3.83;;;2.47;;
54937;SDS011;52756;52.826;6.214;2023-06-14T06:02:36;4.13;;;2.38;;
54937;SDS011;52756;52.826;6.214;2023-06-14T06:05:01;4.78;;;2.67;;
54937;SDS011;52756;52.826;6.214;2023-06-14T06:07:27;4.10;;;2.65;;
54937;SDS011;52756;52.826;6.214;2023-06-14T06:09:53;4.53;;;2.67;;
54937;SDS011;52756;52.826;6.214;2023-06-14T06:12:19;6.25;;;2.67;;
54937;SDS011;52756;52.826;6.214;2023-06-14T06:14:44;6.30;;;2.50;;
54937;SDS011;52756;52.826;6.214;2023-06-14T06:17:10;3.50;;;2.20;;
54937;SDS011;52756;52.826;6.214;2023-06-14T06:19:36;7.55;;;3.05;;
54937;SDS011;52756;52.826;6.214;2023-06-14T06:22:01;7.78;;;2.92;;
54937;SDS011;52756;52.826;6.214;2023-06-14T06:24:29;6.25;;;2.47;;
54937;SDS011;52756;52.826;6.214;2023-06-14T06:26:55;4.22;;;2.60;;
54937;SDS011;52756;52.826;6.214;2023-06-14T06:29:21;6.20;;;2.75;;
54937;SDS011;52756;52.826;6.214;2023-06-14T06:31:46;5.68;;;3.03;;
54937;SDS011;52756;52.826;6.214;2023-06-14T06:34:12;4.78;;;2.53;;
54937;SDS011;52756;52.826;6.214;2023-06-14T06:36:38;3.92;;;2.20;;
54937;SDS011;52756;52.826;6.214;2023-06-14T06:39:03;4.90;;;2.53;;
54937;SDS011;52756;52.826;6.214;2023-06-14T06:41:35;3.45;;;2.40;;
54937;SDS011;52756;52.826;6.214;2023-06-14T06:44:05;5.70;;;2.25;;
54937;SDS011;52756;52.826;6.214;2023-06-14T06:46:32;4.03;;;1.80;;
54937;SDS011;52756;52.826;6.214;2023-06-14T06:48:58;3.58;;;2.22;;
54937;SDS011;52756;52.826;6.214;2023-06-14T06:51:24;6.47;;;3.08;;
54937;SDS011;52756;52.826;6.214;2023-06-14T06:53:53;6.32;;;2.30;;
54937;SDS011;52756;52.826;6.214;2023-06-14T06:56:19;4.50;;;2.28;;
54937;SDS011;52756;52.826;6.214;2023-06-14T06:58:46;3.72;;;2.28;;
54937;SDS011;52756;52.826;6.214;2023-06-14T07:01:11;6.15;;;2.05;;
54937;SDS011;52756;52.826;6.214;2023-06-14T07:03:38;6.75;;;2.70;;
54937;SDS011;52756;52.826;6.214;2023-06-14T07:06:04;8.13;;;2.72;;
54937;SDS011;52756;52.826;6.214;2023-06-14T07:08:30;6.07;;;2.55;;
54937;SDS011;52756;52.826;6.214;2023-06-14T07:10:55;5.60;;;2.60;;
54937;SDS011;52756;52.826;6.214;2023-06-14T07:13:21;4.70;;;1.92;;
54937;SDS011;52756;52.826;6.214;2023-06-14T07:15:47;4.53;;;2.30;;
54937;SDS011;52756;52.826;6.214;2023-06-14T07:18:12;3.60;;;2.25;;
54937;SDS011;52756;52.826;6.214;2023-06-14T07:20:38;4.65;;;2.15;;
54937;SDS011;52756;52.826;6.214;2023-06-14T07:23:04;3.22;;;2.05;;
54937;SDS011;52756;52.826;6.214;2023-06-14T07:25:30;4.22;;;2.00;;
54937;SDS011;52756;52.826;6.214;2023-06-14T07:27:56;3.58;;;1.90;;
54937;SDS011;52756;52.826;6.214;2023-06-14T07:30:22;3.35;;;1.80;;
54937;SDS011;52756;52.826;6.214;2023-06-14T07:32:51;4.72;;;2.22;;
54937;SDS011;52756;52.826;6.214;2023-06-14T07:35:18;5.22;;;2.67;;
54937;SDS011;52756;52.826;6.214;2023-06-14T07:37:44;5.85;;;2.67;;
54937;SDS011;52756;52.826;6.214;2023-06-14T07:40:12;3.95;;;2.20;;
54937;SDS011;52756;52.826;6.214;2023-06-14T07:42:38;3.20;;;2.10;;
54937;SDS011;52756;52.826;6.214;2023-06-14T07:45:07;4.38;;;2.17;;
54937;SDS011;52756;52.826;6.214;2023-06-14T07:47:33;4.13;;;1.80;;
54937;SDS011;52756;52.826;6.214;2023-06-14T07:49:59;4.25;;;2.08;;
54937;SDS011;52756;52.826;6.214;2023-06-14T07:52:25;2.60;;;1.83;;
54937;SDS011;52756;52.826;6.214;2023-06-14T07:54:51;3.45;;;2.13;;
54937;SDS011;52756;52.826;6.214;2023-06-14T07:57:16;3.63;;;2.05;;
54937;SDS011;52756;52.826;6.214;2023-06-14T07:59:45;3.42;;;1.70;;
54937;SDS011;52756;52.826;6.214;2023-06-14T08:02:11;4.65;;;1.90;;
54937;SDS011;52756;52.826;6.214;2023-06-14T08:04:36;6.65;;;2.60;;
54937;SDS011;52756;52.826;6.214;2023-06-14T08:07:03;5.10;;;2.13;;
54937;SDS011;52756;52.826;6.214;2023-06-14T08:09:29;6.38;;;2.30;;
54937;SDS011;52756;52.826;6.214;2023-06-14T08:11:55;4.38;;;2.10;;
54937;SDS011;52756;52.826;6.214;2023-06-14T08:14:21;4.97;;;2.05;;
54937;SDS011;52756;52.826;6.214;2023-06-14T08:16:47;3.85;;;1.80;;
54937;SDS011;52756;52.826;6.214;2023-06-14T08:19:13;7.78;;;1.80;;
54937;SDS011;52756;52.826;6.214;2023-06-14T08:21:41;6.38;;;2.03;;
54937;SDS011;52756;52.826;6.214;2023-06-14T08:24:08;5.45;;;1.70;;
54937;SDS011;52756;52.826;6.214;2023-06-14T08:26:37;4.00;;;1.75;;
54937;SDS011;52756;52.826;6.214;2023-06-14T08:29:04;3.70;;;2.28;;
54937;SDS011;52756;52.826;6.214;2023-06-14T08:31:32;5.28;;;2.00;;
54937;SDS011;52756;52.826;6.214;2023-06-14T08:33:59;4.55;;;2.08;;
54937;SDS011;52756;52.826;6.214;2023-06-14T08:36:25;4.70;;;1.80;;
54937;SDS011;52756;52.826;6.214;2023-06-14T08:38:50;5.00;;;1.85;;
54937;SDS011;52756;52.826;6.214;2023-06-14T08:41:22;2.35;;;1.58;;
54937;SDS011;52756;52.826;6.214;2023-06-14T08:43:49;5.93;;;1.77;;
54937;SDS011;52756;52.826;6.214;2023-06-14T08:46:17;6.68;;;2.72;;
54937;SDS011;52756;52.826;6.214;2023-06-14T08:48:46;4.93;;;1.83;;
54937;SDS011;52756;52.826;6.214;2023-06-14T08:51:14;5.63;;;1.90;;
54937;SDS011;52756;52.826;6.214;2023-06-14T08:53:43;4.43;;;1.98;;
54937;SDS011;52756;52.826;6.214;2023-06-14T08:56:09;5.28;;;2.15;;
54937;SDS011;52756;52.826;6.214;2023-06-14T08:58:44;4.57;;;1.73;;
54937;SDS011;52756;52.826;6.214;2023-06-14T09:01:13;4.63;;;1.70;;
54937;SDS011;52756;52.826;6.214;2023-06-14T09:03:41;5.78;;;2.35;;
54937;SDS011;52756;52.826;6.214;2023-06-14T09:06:07;2.85;;;1.80;;
54937;SDS011;52756;52.826;6.214;2023-06-14T09:08:39;5.60;;;1.77;;
54937;SDS011;52756;52.826;6.214;2023-06-14T09:11:15;3.17;;;1.60;;
54937;SDS011;52756;52.826;6.214;2023-06-14T09:13:43;3.97;;;1.70;;
54937;SDS011;52756;52.826;6.214;2023-06-14T09:16:10;6.53;;;1.92;;
54937;SDS011;52756;52.826;6.214;2023-06-14T09:18:39;4.10;;;1.60;;
54937;SDS011;52756;52.826;6.214;2023-06-14T09:21:10;4.32;;;1.90;;
54937;SDS011;52756;52.826;6.214;2023-06-14T09:23:37;2.15;;;1.67;;
54937;SDS011;52756;52.826;6.214;2023-06-14T09:26:13;6.63;;;2.05;;
54937;SDS011;52756;52.826;6.214;2023-06-14T09:28:41;6.32;;;2.25;;
54937;SDS011;52756;52.826;6.214;2023-06-14T09:31:09;6.28;;;2.22;;
54937;SDS011;52756;52.826;6.214;2023-06-14T09:33:46;6.03;;;2.03;;
54937;SDS011;52756;52.826;6.214;2023-06-14T09:44:05;4.93;;;2.40;;
54937;SDS011;52756;52.826;6.214;2023-06-14T09:46:32;5.00;;;1.80;;
54937;SDS011;52756;52.826;6.214;2023-06-14T09:49:00;5.30;;;1.63;;
54937;SDS011;52756;52.826;6.214;2023-06-14T09:51:26;2.38;;;1.38;;
54937;SDS011;52756;52.826;6.214;2023-06-14T09:53:55;5.15;;;1.88;;
54937;SDS011;52756;52.826;6.214;2023-06-14T09:56:26;4.15;;;1.40;;
54937;SDS011;52756;52.826;6.214;2023-06-14T09:58:57;4.53;;;1.80;;
54937;SDS011;52756;52.826;6.214;2023-06-14T10:01:25;4.32;;;2.05;;
54937;SDS011;52756;52.826;6.214;2023-06-14T10:04:01;3.22;;;1.60;;
54937;SDS011;52756;52.826;6.214;2023-06-14T10:06:29;2.85;;;1.60;;
54937;SDS011;52756;52.826;6.214;2023-06-14T10:08:56;4.30;;;1.98;;
54937;SDS011;52756;52.826;6.214;2023-06-14T10:11:27;4.35;;;1.80;;
54937;SDS011;52756;52.826;6.214;2023-06-14T10:13:57;3.08;;;1.50;;
54937;SDS011;52756;52.826;6.214;2023-06-14T10:16:28;1.63;;;1.30;;
54937;SDS011;52756;52.826;6.214;2023-06-14T10:19:03;3.03;;;1.50;;
54937;SDS011;52756;52.826;6.214;2023-06-14T10:21:46;3.33;;;1.80;;
54937;SDS011;52756;52.826;6.214;2023-06-14T10:26:58;3.58;;;1.40;;
54937;SDS011;52756;52.826;6.214;2023-06-14T10:29:26;5.07;;;2.17;;
54937;SDS011;52756;52.826;6.214;2023-06-14T10:31:57;4.63;;;1.80;;
54937;SDS011;52756;52.826;6.214;2023-06-14T10:34:25;3.10;;;1.80;;
54937;SDS011;52756;52.826;6.214;2023-06-14T10:37:04;3.22;;;1.60;;
54937;SDS011;52756;52.826;6.214;2023-06-14T10:39:38;3.13;;;1.40;;
54937;SDS011;52756;52.826;6.214;2023-06-14T10:42:06;6.72;;;1.73;;
54937;SDS011;52756;52.826;6.214;2023-06-14T10:44:39;3.03;;;1.65;;
54937;SDS011;52756;52.826;6.214;2023-06-14T10:47:24;2.97;;;1.50;;
54937;SDS011;52756;52.826;6.214;2023-06-14T10:49:51;2.88;;;1.60;;
54937;SDS011;52756;52.826;6.214;2023-06-14T10:52:22;5.70;;;1.88;;
54937;SDS011;52756;52.826;6.214;2023-06-14T10:55:09;3.47;;;1.52;;
54937;SDS011;52756;52.826;6.214;2023-06-14T10:57:47;2.53;;;1.30;;
54937;SDS011;52756;52.826;6.214;2023-06-14T11:00:17;2.42;;;1.25;;
54937;SDS011;52756;52.826;6.214;2023-06-14T11:02:46;6.35;;;1.60;;
54937;SDS011;52756;52.826;6.214;2023-06-14T11:05:16;1.77;;;1.25;;
54937;SDS011;52756;52.826;6.214;2023-06-14T11:10:37;3.00;;;1.50;;
54937;SDS011;52756;52.826;6.214;2023-06-14T11:13:04;3.75;;;1.52;;
54937;SDS011;52756;52.826;6.214;2023-06-14T11:15:31;1.95;;;1.00;;
54937;SDS011;52756;52.826;6.214;2023-06-14T11:17:58;3.13;;;1.50;;
54937;SDS011;52756;52.826;6.214;2023-06-14T11:20:26;2.83;;;1.08;;
54937;SDS011;52756;52.826;6.214;2023-06-14T11:22:54;1.90;;;0.95;;
54937;SDS011;52756;52.826;6.214;2023-06-14T11:25:20;2.50;;;0.93;;
54937;SDS011;52756;52.826;6.214;2023-06-14T11:27:46;2.53;;;1.20;;
54937;SDS011;52756;52.826;6.214;2023-06-14T11:30:14;3.05;;;1.20;;
54937;SDS011;52756;52.826;6.214;2023-06-14T11:32:40;2.83;;;1.30;;
54937;SDS011;52756;52.826;6.214;2023-06-14T11:35:06;5.10;;;1.73;;
54937;SDS011;52756;52.826;6.214;2023-06-14T11:37:33;1.95;;;1.20;;
54937;SDS011;52756;52.826;6.214;2023-06-14T11:40:02;2.83;;;1.05;;
54937;SDS011;52756;52.826;6.214;2023-06-14T11:42:33;3.53;;;1.15;;
54937;SDS011;52756;52.826;6.214;2023-06-14T11:44:59;2.35;;;1.20;;
54937;SDS011;52756;52.826;6.214;2023-06-14T11:47:24;1.83;;;1.20;;
54937;SDS011;52756;52.826;6.214;2023-06-14T11:49:58;2.60;;;1.13;;
54937;SDS011;52756;52.826;6.214;2023-06-14T11:52:27;3.58;;;1.20;;
54937;SDS011;52756;52.826;6.214;2023-06-14T11:54:53;2.97;;;1.23;;
54937;SDS011;52756;52.826;6.214;2023-06-14T11:57:19;2.92;;;1.27;;
54937;SDS011;52756;52.826;6.214;2023-06-14T11:59:45;4.07;;;1.20;;
54937;SDS011;52756;52.826;6.214;2023-06-14T12:02:15;3.70;;;1.42;;
54937;SDS011;52756;52.826;6.214;2023-06-14T12:04:42;2.38;;;1.20;;
54937;SDS011;52756;52.826;6.214;2023-06-14T12:07:17;1.42;;;0.90;;
54937;SDS011;52756;52.826;6.214;2023-06-14T12:12:23;4.53;;;1.38;;
54937;SDS011;52756;52.826;6.214;2023-06-14T12:14:54;5.05;;;1.50;;
54937;SDS011;52756;52.826;6.214;2023-06-14T12:17:21;3.10;;;1.20;;
54937;SDS011;52756;52.826;6.214;2023-06-14T12:19:48;4.75;;;1.42;;
54937;SDS011;52756;52.826;6.214;2023-06-14T12:22:15;3.15;;;1.02;;
54937;SDS011;52756;52.826;6.214;2023-06-14T12:24:44;2.22;;;1.27;;
54937;SDS011;52756;52.826;6.214;2023-06-14T12:27:11;4.13;;;1.80;;
54937;SDS011;52756;52.826;6.214;2023-06-14T12:29:41;5.40;;;1.20;;
54937;SDS011;52756;52.826;6.214;2023-06-14T12:32:10;3.45;;;1.23;;
54937;SDS011;52756;52.826;6.214;2023-06-14T12:34:36;4.10;;;1.50;;
54937;SDS011;52756;52.826;6.214;2023-06-14T12:37:02;3.53;;;1.10;;
54937;SDS011;52756;52.826;6.214;2023-06-14T12:39:29;2.42;;;1.30;;
54937;SDS011;52756;52.826;6.214;2023-06-14T12:41:58;3.95;;;1.25;;
54937;SDS011;52756;52.826;6.214;2023-06-14T12:44:24;2.08;;;1.45;;
54937;SDS011;52756;52.826;6.214;2023-06-14T12:46:50;4.30;;;1.40;;
54937;SDS011;52756;52.826;6.214;2023-06-14T12:49:19;3.60;;;1.20;;
54937;SDS011;52756;52.826;6.214;2023-06-14T12:51:45;2.75;;;1.10;;
54937;SDS011;52756;52.826;6.214;2023-06-14T12:54:11;4.68;;;1.33;;
54937;SDS011;52756;52.826;6.214;2023-06-14T12:56:37;2.88;;;1.08;;
54937;SDS011;52756;52.826;6.214;2023-06-14T12:59:03;4.07;;;1.00;;
54937;SDS011;52756;52.826;6.214;2023-06-14T13:01:29;7.03;;;1.60;;
54937;SDS011;52756;52.826;6.214;2023-06-14T13:03:54;3.25;;;1.40;;
54937;SDS011;52756;52.826;6.214;2023-06-14T13:06:20;5.13;;;1.30;;
54937;SDS011;52756;52.826;6.214;2023-06-14T13:08:50;2.13;;;1.30;;
54937;SDS011;52756;52.826;6.214;2023-06-14T13:11:15;3.10;;;1.38;;
54937;SDS011;52756;52.826;6.214;2023-06-14T13:13:41;3.03;;;1.25;;
54937;SDS011;52756;52.826;6.214;2023-06-14T13:16:07;3.00;;;1.20;;
54937;SDS011;52756;52.826;6.214;2023-06-14T13:18:33;3.97;;;1.30;;
54937;SDS011;52756;52.826;6.214;2023-06-14T13:20:59;3.03;;;1.10;;
54937;SDS011;52756;52.826;6.214;2023-06-14T13:23:24;3.53;;;1.20;;
54937;SDS011;52756;52.826;6.214;2023-06-14T13:25:50;4.30;;;1.20;;
54937;SDS011;52756;52.826;6.214;2023-06-14T13:28:16;3.00;;;1.10;;
54937;SDS011;52756;52.826;6.214;2023-06-14T13:30:42;2.05;;;1.20;;
54937;SDS011;52756;52.826;6.214;2023-06-14T13:33:07;2.00;;;1.00;;
54937;SDS011;52756;52.826;6.214;2023-06-14T13:35:33;1.48;;;1.00;;
54937;SDS011;52756;52.826;6.214;2023-06-14T13:38:00;2.88;;;1.58;;
54937;SDS011;52756;52.826;6.214;2023-06-14T13:40:26;4.97;;;1.58;;
54937;SDS011;52756;52.826;6.214;2023-06-14T13:42:51;4.13;;;1.63;;
54937;SDS011;52756;52.826;6.214;2023-06-14T13:45:17;2.75;;;1.20;;
54937;SDS011;52756;52.826;6.214;2023-06-14T13:47:43;2.90;;;1.27;;
54937;SDS011;52756;52.826;6.214;2023-06-14T13:50:09;2.10;;;1.23;;
54937;SDS011;52756;52.826;6.214;2023-06-14T13:52:34;3.70;;;1.65;;
54937;SDS011;52756;52.826;6.214;2023-06-14T13:55:00;3.15;;;1.30;;
54937;SDS011;52756;52.826;6.214;2023-06-14T13:57:26;4.80;;;1.80;;
54937;SDS011;52756;52.826;6.214;2023-06-14T13:59:52;1.85;;;1.40;;
54937;SDS011;52756;52.826;6.214;2023-06-14T14:02:20;5.65;;;1.65;;
54937;SDS011;52756;52.826;6.214;2023-06-14T14:04:46;3.78;;;1.73;;
54937;SDS011;52756;52.826;6.214;2023-06-14T14:07:17;3.20;;;1.10;;
54937;SDS011;52756;52.826;6.214;2023-06-14T14:09:44;2.30;;;1.23;;
54937;SDS011;52756;52.826;6.214;2023-06-14T14:12:10;3.20;;;1.40;;
54937;SDS011;52756;52.826;6.214;2023-06-14T14:14:36;4.28;;;1.60;;
54937;SDS011;52756;52.826;6.214;2023-06-14T14:17:02;2.60;;;1.33;;
54937;SDS011;52756;52.826;6.214;2023-06-14T14:19:28;5.70;;;1.30;;
54937;SDS011;52756;52.826;6.214;2023-06-14T14:21:53;2.72;;;1.27;;
54937;SDS011;52756;52.826;6.214;2023-06-14T14:24:19;3.08;;;1.55;;
54937;SDS011;52756;52.826;6.214;2023-06-14T14:26:45;3.60;;;1.40;;
54937;SDS011;52756;52.826;6.214;2023-06-14T14:29:13;4.30;;;1.30;;
54937;SDS011;52756;52.826;6.214;2023-06-14T14:31:39;2.20;;;1.38;;
54937;SDS011;52756;52.826;6.214;2023-06-14T14:34:05;1.95;;;1.38;;
54937;SDS011;52756;52.826;6.214;2023-06-14T14:36:31;5.03;;;1.35;;
54937;SDS011;52756;52.826;6.214;2023-06-14T14:38:58;2.47;;;1.10;;
54937;SDS011;52756;52.826;6.214;2023-06-14T14:41:24;2.50;;;1.33;;
54937;SDS011;52756;52.826;6.214;2023-06-14T14:43:50;2.33;;;1.10;;
54937;SDS011;52756;52.826;6.214;2023-06-14T14:46:16;5.95;;;1.30;;
54937;SDS011;52756;52.826;6.214;2023-06-14T14:48:42;1.42;;;1.10;;
54937;SDS011;52756;52.826;6.214;2023-06-14T14:51:07;2.10;;;1.33;;
54937;SDS011;52756;52.826;6.214;2023-06-14T14:53:33;1.95;;;1.40;;
54937;SDS011;52756;52.826;6.214;2023-06-14T14:55:59;1.77;;;1.30;;
54937;SDS011;52756;52.826;6.214;2023-06-14T14:58:25;3.55;;;1.25;;
54937;SDS011;52756;52.826;6.214;2023-06-14T15:00:50;1.80;;;1.23;;
54937;SDS011;52756;52.826;6.214;2023-06-14T15:03:16;1.70;;;1.00;;
54937;SDS011;52756;52.826;6.214;2023-06-14T15:05:42;2.55;;;1.15;;
54937;SDS011;52756;52.826;6.214;2023-06-14T15:08:08;2.10;;;1.30;;
54937;SDS011;52756;52.826;6.214;2023-06-14T15:10:39;1.60;;;1.10;;